Time;durP1;ratioP1;P1;durP2;ratioP2;P2;SDS_P1;SDS_P2;PMS_P1;PMS_P2;Temp;Humidity;BMP_temperature;BMP_pressure;BME280_temperature;BME280_humidity;BME280_pressure;Samples;Min_cycle;Max_cycle;Signal;HPM_P1;HPM_P2
2022/06/15 00:00:23;;;;;;;;;;;15.20;99.90;;;;;;5097895;28;19912;-80
2022/06/15 00:02:49;;;;;;;;;;;15.20;99.90;;;;;;5115133;28;19908;-80
2022/06/15 00:05:14;;;;;;;;;;;15.20;99.90;;;;;;5106096;28;19915;-79
2022/06/15 00:07:40;;;;;;;;;;;15.30;99.90;;;;;;5096290;28;20371;-79
2022/06/15 00:10:06;;;;;;;;;;;15.20;99.90;;;;;;5094889;28;19914;-79
2022/06/15 00:12:31;;;;;;;;;;;15.20;99.90;;;;;;5094276;28;20349;-79
2022/06/15 00:14:57;;;;;;;;;;;15.20;99.90;;;;;;5094577;28;19965;-78
2022/06/15 00:17:23;;;;;;;;;;;15.10;99.90;;;;;;5093787;28;19958;-79
2022/06/15 00:19:48;;;;;;;;;;;15.10;99.90;;;;;;5094565;28;19922;-79
2022/06/15 00:22:14;;;;;;;;;;;15.10;99.90;;;;;;5093679;28;19915;-79
2022/06/15 00:24:39;;;;;;;;;;;15.10;99.90;;;;;;5094323;28;19909;-79
2022/06/15 00:27:05;;;;;;;;;;;15.00;99.90;;;;;;5093906;28;20378;-79
2022/06/15 00:29:33;;;;;;;;;;;15.00;99.90;;;;;;5094416;28;19908;-79
2022/06/15 00:31:59;;;;;;;;;;;15.00;99.90;;;;;;5093850;28;19920;-78
2022/06/15 00:34:24;;;;;;;;;;;15.00;99.90;;;;;;5093880;28;19912;-79
2022/06/15 00:36:50;;;;;;;;;;;15.00;99.90;;;;;;5094147;28;20322;-78
2022/06/15 00:39:16;;;;;;;;;;;15.00;99.90;;;;;;5093605;28;19947;-79
2022/06/15 00:41:41;;;;;;;;;;;15.00;99.90;;;;;;5092962;28;19912;-79
2022/06/15 00:44:19;;;;;;;;;;;15.00;99.90;;;;;;5093297;28;19916;-78
2022/06/15 00:46:49;;;;;;;;;;;15.00;99.90;;;;;;5093563;28;19998;-79
2022/06/15 00:49:21;;;;;;;;;;;15.10;99.90;;;;;;5092163;28;19908;-79
2022/06/15 00:51:48;;;;;;;;;;;15.10;99.90;;;;;;5094060;28;19909;-79
2022/06/15 00:54:13;;;;;;;;;;;15.10;99.90;;;;;;5093228;28;19916;-79
2022/06/15 00:56:39;;;;;;;;;;;15.10;99.90;;;;;;5093990;28;19919;-79
2022/06/15 00:59:08;;;;;;;;;;;15.00;99.90;;;;;;5093628;28;20011;-79
2022/06/15 01:01:34;;;;;;;;;;;14.90;99.90;;;;;;5092275;28;19952;-79
2022/06/15 01:04:00;;;;;;;;;;;15.00;99.90;;;;;;5093831;28;19951;-80
2022/06/15 01:06:31;;;;;;;;;;;15.00;99.90;;;;;;5091628;28;20276;-79
2022/06/15 01:08:58;;;;;;;;;;;14.90;99.90;;;;;;5092375;28;20281;-80
2022/06/15 01:11:34;;;;;;;;;;;14.90;99.90;;;;;;5093021;28;19904;-80
2022/06/15 01:14:18;;;;;;;;;;;14.80;99.90;;;;;;5093327;28;19912;-78
2022/06/15 01:16:54;;;;;;;;;;;14.70;99.90;;;;;;5093146;28;19916;-80
2022/06/15 01:19:32;;;;;;;;;;;14.80;99.90;;;;;;5092832;28;19915;-79
2022/06/15 01:22:16;;;;;;;;;;;14.70;99.90;;;;;;5093630;28;19912;-79
2022/06/15 01:25:00;;;;;;;;;;;14.70;99.90;;;;;;5093123;28;20003;-79
2022/06/15 01:27:45;;;;;;;;;;;14.70;99.90;;;;;;5092796;28;20111;-79
2022/06/15 01:30:11;;;;;;;;;;;14.70;99.90;;;;;;5092668;28;19961;-78
2022/06/15 01:32:36;;;;;;;;;;;14.70;99.90;;;;;;5093323;28;19912;-79
2022/06/15 01:35:25;;;;;;;;;;;14.70;99.90;;;;;;5092708;28;19965;-79
2022/06/15 01:37:56;;;;;;;;;;;14.70;99.90;;;;;;5072870;28;19908;-79
2022/06/15 01:40:30;;;;;;;;;;;14.70;99.90;;;;;;5093010;28;19991;-79
2022/06/15 01:43:01;;;;;;;;;;;14.70;99.90;;;;;;5092968;28;20361;-79
2022/06/15 01:45:29;;;;;;;;;;;14.70;99.90;;;;;;5091335;28;20279;-79
2022/06/15 01:47:57;;;;;;;;;;;14.70;99.90;;;;;;5092864;28;19946;-79
2022/06/15 01:50:25;;;;;;;;;;;14.70;99.90;;;;;;5092490;28;19912;-79
2022/06/15 01:52:56;;;;;;;;;;;14.60;99.90;;;;;;5093060;28;19912;-79
2022/06/15 01:55:25;;;;;;;;;;;14.60;99.90;;;;;;5092534;28;19912;-79
2022/06/15 01:57:53;;;;;;;;;;;14.50;99.90;;;;;;5092950;28;19934;-79
2022/06/15 02:00:19;;;;;;;;;;;14.50;99.90;;;;;;5092360;28;19908;-79
2022/06/15 02:02:57;;;;;;;;;;;14.50;99.90;;;;;;5092772;28;19912;-79
2022/06/15 02:05:37;;;;;;;;;;;14.40;99.90;;;;;;5092071;28;20357;-79
2022/06/15 02:08:08;;;;;;;;;;;14.40;99.90;;;;;;5092847;28;20311;-79
2022/06/15 02:10:39;;;;;;;;;;;14.40;99.90;;;;;;5092922;28;19957;-80
2022/06/15 02:13:04;;;;;;;;;;;14.40;99.90;;;;;;5092908;28;19919;-80
2022/06/15 02:15:30;;;;;;;;;;;14.40;99.90;;;;;;5092267;28;19916;-79
2022/06/15 02:17:57;;;;;;;;;;;14.30;99.90;;;;;;5092549;28;19908;-80
2022/06/15 02:20:27;;;;;;;;;;;14.30;99.90;;;;;;5091160;28;20004;-79
2022/06/15 02:22:54;;;;;;;;;;;14.30;99.90;;;;;;5092448;28;19994;-79
2022/06/15 02:25:21;;;;;;;;;;;14.30;99.90;;;;;;5092162;28;19908;-80
2022/06/15 02:27:49;;;;;;;;;;;14.30;99.90;;;;;;5093940;28;19954;-79
2022/06/15 02:30:17;;;;;;;;;;;14.40;99.90;;;;;;5092417;28;19928;-79
2022/06/15 02:32:43;;;;;;;;;;;14.30;99.90;;;;;;5092846;28;19932;-79
2022/06/15 02:35:09;;;;;;;;;;;14.20;99.90;;;;;;5092408;28;19969;-76
2022/06/15 02:37:35;;;;;;;;;;;14.20;99.90;;;;;;5092119;28;19912;-79
2022/06/15 02:40:01;;;;;;;;;;;14.20;99.90;;;;;;5092848;28;20403;-79
2022/06/15 02:42:26;;;;;;;;;;;14.20;99.90;;;;;;5091828;28;20380;-79
2022/06/15 02:44:54;;;;;;;;;;;14.10;99.90;;;;;;5092575;28;20050;-79
2022/06/15 02:47:20;;;;;;;;;;;14.20;99.90;;;;;;5094906;28;20011;-78
2022/06/15 02:49:50;;;;;;;;;;;14.10;99.90;;;;;;5095965;28;19908;-79
2022/06/15 02:52:17;;;;;;;;;;;14.00;99.90;;;;;;5095453;28;20306;-79
2022/06/15 02:54:46;;;;;;;;;;;14.00;99.90;;;;;;5096379;28;19922;-78
2022/06/15 02:57:12;;;;;;;;;;;14.00;99.90;;;;;;5095877;28;20341;-76
2022/06/15 02:59:38;;;;;;;;;;;13.90;99.90;;;;;;5096205;28;19908;-78
2022/06/15 03:02:04;;;;;;;;;;;13.90;99.90;;;;;;5096186;28;19923;-79
2022/06/15 03:04:29;;;;;;;;;;;13.90;99.90;;;;;;5095465;28;19909;-79
2022/06/15 03:06:55;;;;;;;;;;;13.80;99.90;;;;;;5096155;28;19908;-79
2022/06/15 03:09:21;;;;;;;;;;;13.80;99.90;;;;;;5095433;28;20380;-78
2022/06/15 03:11:46;;;;;;;;;;;13.70;99.90;;;;;;5096253;28;19962;-78
2022/06/15 03:14:14;;;;;;;;;;;13.80;99.90;;;;;;5109194;28;19912;-76
2022/06/15 03:16:43;;;;;;;;;;;13.70;99.90;;;;;;5110765;28;19912;-78
2022/06/15 03:19:09;;;;;;;;;;;13.70;99.90;;;;;;5097829;28;19908;-78
2022/06/15 03:21:35;;;;;;;;;;;13.70;99.90;;;;;;5096140;28;20308;-79
2022/06/15 03:24:00;;;;;;;;;;;13.60;99.90;;;;;;5095786;28;19916;-78
2022/06/15 03:26:26;;;;;;;;;;;13.60;99.90;;;;;;5093857;28;20260;-79
2022/06/15 03:28:51;;;;;;;;;;;13.60;99.90;;;;;;5095597;28;19948;-79
2022/06/15 03:31:17;;;;;;;;;;;13.50;99.90;;;;;;5093685;28;19927;-78
2022/06/15 03:33:42;;;;;;;;;;;13.50;99.90;;;;;;5094491;28;19924;-79
2022/06/15 03:36:08;;;;;;;;;;;13.40;99.90;;;;;;5095725;28;19912;-80
2022/06/15 03:38:34;;;;;;;;;;;13.30;99.90;;;;;;5094709;28;20085;-79
2022/06/15 03:40:59;;;;;;;;;;;13.30;99.90;;;;;;5095177;28;19951;-79
2022/06/15 03:43:25;;;;;;;;;;;13.20;99.90;;;;;;5094715;28;19912;-78
2022/06/15 03:45:50;;;;;;;;;;;13.20;99.90;;;;;;5094992;28;19908;-78
2022/06/15 03:48:16;;;;;;;;;;;13.10;99.90;;;;;;5093410;28;20273;-76
2022/06/15 03:50:42;;;;;;;;;;;13.00;99.90;;;;;;5094773;28;20007;-79
2022/06/15 03:53:08;;;;;;;;;;;12.90;99.90;;;;;;5094937;28;20422;-79
2022/06/15 03:55:35;;;;;;;;;;;12.90;99.90;;;;;;5094908;28;19916;-79
2022/06/15 03:58:00;;;;;;;;;;;12.80;99.90;;;;;;5093949;28;19952;-79
2022/06/15 04:00:27;;;;;;;;;;;12.80;99.90;;;;;;5094392;28;19952;-78
2022/06/15 04:02:53;;;;;;;;;;;12.80;99.90;;;;;;5096382;28;19979;-78
2022/06/15 04:05:21;;;;;;;;;;;12.70;99.90;;;;;;5112692;28;19919;-77
2022/06/15 04:10:32;;;;;;;;;;;12.70;99.90;;;;;;5095058;28;19915;-78
2022/06/15 04:12:57;;;;;;;;;;;12.60;99.90;;;;;;5094301;28;19912;-79
2022/06/15 04:15:23;;;;;;;;;;;12.50;99.90;;;;;;5093700;28;19916;-78
2022/06/15 04:17:48;;;;;;;;;;;12.50;99.90;;;;;;5094401;28;19915;-79
2022/06/15 04:20:33;;;;;;;;;;;12.40;99.90;;;;;;5094361;28;19915;-79
2022/06/15 04:23:00;;;;;;;;;;;12.40;99.90;;;;;;5094407;28;19991;-79
2022/06/15 04:25:27;;;;;;;;;;;12.40;99.90;;;;;;5093939;28;19961;-79
2022/06/15 04:27:52;;;;;;;;;;;12.30;99.90;;;;;;5094475;28;19908;-79
2022/06/15 04:30:18;;;;;;;;;;;12.20;99.90;;;;;;5093775;28;19920;-76
2022/06/15 04:32:43;;;;;;;;;;;12.10;99.90;;;;;;5093776;28;20403;-79
2022/06/15 04:35:09;;;;;;;;;;;12.10;99.90;;;;;;5094231;28;20277;-79
2022/06/15 04:37:37;;;;;;;;;;;12.10;99.90;;;;;;5093769;28;19917;-78
2022/06/15 04:40:03;;;;;;;;;;;12.20;99.90;;;;;;5093907;28;19919;-78
2022/06/15 04:42:29;;;;;;;;;;;12.20;99.90;;;;;;5093586;28;20344;-79
2022/06/15 04:44:55;;;;;;;;;;;12.20;99.90;;;;;;5094222;28;19931;-79
2022/06/15 04:47:20;;;;;;;;;;;12.30;99.90;;;;;;5093556;28;19909;-76
2022/06/15 04:49:46;;;;;;;;;;;12.30;99.90;;;;;;5094068;28;20389;-79
2022/06/15 04:52:11;;;;;;;;;;;12.40;99.90;;;;;;5095343;28;19912;-79
2022/06/15 04:54:37;;;;;;;;;;;12.50;99.90;;;;;;5109986;28;19912;-78
2022/06/15 04:57:02;;;;;;;;;;;12.70;99.90;;;;;;5098774;28;20377;-79
2022/06/15 04:59:28;;;;;;;;;;;12.90;99.90;;;;;;5093088;28;20002;-79
2022/06/15 05:01:55;;;;;;;;;;;13.00;99.90;;;;;;5093435;28;19951;-79
2022/06/15 05:04:21;;;;;;;;;;;13.20;99.90;;;;;;5093423;28;19908;-77
2022/06/15 05:06:47;;;;;;;;;;;13.30;99.90;;;;;;5093880;28;19908;-79
2022/06/15 05:09:13;;;;;;;;;;;13.50;99.90;;;;;;5092938;28;19912;-78
2022/06/15 05:11:39;;;;;;;;;;;13.60;99.90;;;;;;5092379;28;19934;-79
2022/06/15 05:14:04;;;;;;;;;;;13.60;99.90;;;;;;5093669;28;19927;-78
2022/06/15 05:16:31;;;;;;;;;;;13.50;99.90;;;;;;5092920;28;19918;-79
2022/06/15 05:18:57;;;;;;;;;;;13.60;99.90;;;;;;5093524;28;19915;-79
2022/06/15 05:21:22;;;;;;;;;;;13.70;99.90;;;;;;5092920;28;19912;-76
2022/06/15 05:23:48;;;;;;;;;;;13.70;99.90;;;;;;5093426;28;19987;-79
2022/06/15 05:26:14;;;;;;;;;;;13.70;99.90;;;;;;5093377;28;19908;-79
2022/06/15 05:28:41;;;;;;;;;;;13.80;99.90;;;;;;5092444;28;20319;-78
2022/06/15 05:31:13;;;;;;;;;;;13.90;99.90;;;;;;5093051;28;19935;-79
2022/06/15 05:33:42;;;;;;;;;;;14.00;99.90;;;;;;5092525;28;19965;-78
2022/06/15 05:36:11;;;;;;;;;;;14.20;99.90;;;;;;5093101;28;19939;-78
2022/06/15 05:38:37;;;;;;;;;;;14.30;99.90;;;;;;5092795;28;19923;-78
2022/06/15 05:41:04;;;;;;;;;;;14.40;99.90;;;;;;5093105;28;20349;-79
2022/06/15 05:43:31;;;;;;;;;;;14.50;99.90;;;;;;5092538;28;19915;-78
2022/06/15 05:45:56;;;;;;;;;;;14.60;99.90;;;;;;5092966;28;19908;-79
2022/06/15 05:48:22;;;;;;;;;;;14.70;99.90;;;;;;5092988;28;20276;-77
2022/06/15 05:50:48;;;;;;;;;;;14.80;99.90;;;;;;5092771;28;19961;-79
2022/06/15 05:53:13;;;;;;;;;;;14.70;99.90;;;;;;5093044;28;19919;-79
2022/06/15 05:55:39;;;;;;;;;;;14.90;99.90;;;;;;5092515;28;19916;-79
2022/06/15 05:58:05;;;;;;;;;;;15.00;99.90;;;;;;5093220;28;20376;-79
2022/06/15 06:00:31;;;;;;;;;;;15.20;99.90;;;;;;5092268;28;19948;-78
2022/06/15 06:02:56;;;;;;;;;;;15.30;99.90;;;;;;5093011;28;19997;-79
2022/06/15 06:05:23;;;;;;;;;;;15.40;99.90;;;;;;5092554;28;20321;-80
2022/06/15 06:07:49;;;;;;;;;;;15.50;99.90;;;;;;5092420;28;19908;-79
2022/06/15 06:10:15;;;;;;;;;;;15.60;99.90;;;;;;5092543;28;20372;-79
2022/06/15 06:12:40;;;;;;;;;;;15.70;99.90;;;;;;5092155;28;19912;-79
2022/06/15 06:15:06;;;;;;;;;;;15.80;99.90;;;;;;5092841;28;19912;-79
2022/06/15 06:17:32;;;;;;;;;;;15.90;99.90;;;;;;5091869;28;20269;-79
2022/06/15 06:19:57;;;;;;;;;;;16.00;99.90;;;;;;5092636;28;20357;-79
2022/06/15 06:22:23;;;;;;;;;;;16.10;99.90;;;;;;5095431;28;19912;-78
2022/06/15 06:24:49;;;;;;;;;;;16.30;99.90;;;;;;5094759;28;19908;-79
2022/06/15 06:27:15;;;;;;;;;;;16.40;99.90;;;;;;5096592;28;19908;-80
2022/06/15 06:29:41;;;;;;;;;;;16.50;99.90;;;;;;5095837;28;19934;-79
2022/06/15 06:32:07;;;;;;;;;;;16.60;99.90;;;;;;5096882;28;19920;-79
2022/06/15 06:34:32;;;;;;;;;;;16.70;99.90;;;;;;5095957;28;19978;-78
2022/06/15 06:37:02;;;;;;;;;;;16.70;99.90;;;;;;5096239;28;19915;-79
2022/06/15 06:39:28;;;;;;;;;;;16.70;99.90;;;;;;5096049;28;20380;-77
2022/06/15 06:41:55;;;;;;;;;;;16.80;99.90;;;;;;5095030;28;19962;-80
2022/06/15 06:44:21;;;;;;;;;;;16.90;99.90;;;;;;5100233;28;20257;-79
2022/06/15 06:46:47;;;;;;;;;;;17.10;99.90;;;;;;5096573;28;19908;-80
2022/06/15 06:49:13;;;;;;;;;;;17.10;99.90;;;;;;5096309;28;19943;-80
2022/06/15 06:51:39;;;;;;;;;;;17.20;99.90;;;;;;5095719;28;19916;-80
2022/06/15 06:54:05;;;;;;;;;;;17.20;99.90;;;;;;5096080;28;19936;-79
2022/06/15 06:56:31;;;;;;;;;;;17.30;99.90;;;;;;5095333;28;19919;-79
2022/06/15 06:58:57;;;;;;;;;;;17.40;99.90;;;;;;5095531;28;19908;-80
2022/06/15 07:01:22;;;;;;;;;;;17.50;99.90;;;;;;5095899;28;19918;-80
2022/06/15 07:03:48;;;;;;;;;;;17.50;99.90;;;;;;5095173;28;19908;-79
2022/06/15 07:06:13;;;;;;;;;;;17.50;99.90;;;;;;5096013;28;19908;-80
2022/06/15 07:08:39;;;;;;;;;;;17.50;99.90;;;;;;5095398;28;20409;-80
2022/06/15 07:11:18;;;;;;;;;;;17.60;99.90;;;;;;5095505;28;19908;-79
2022/06/15 07:13:44;;;;;;;;;;;17.70;99.90;;;;;;5094062;28;19923;-79
2022/06/15 07:16:11;;;;;;;;;;;17.80;99.90;;;;;;5095695;28;19912;-80
2022/06/15 07:18:37;;;;;;;;;;;17.90;99.90;;;;;;5095532;28;19908;-80
2022/06/15 07:21:04;;;;;;;;;;;18.00;99.90;;;;;;5094384;28;20327;-79
2022/06/15 07:23:29;;;;;;;;;;;18.10;99.90;;;;;;5095720;28;19915;-77
2022/06/15 07:25:55;;;;;;;;;;;18.20;99.90;;;;;;5092670;28;19908;-79
2022/06/15 07:28:21;;;;;;;;;;;18.20;99.90;;;;;;5090190;28;19912;-78
2022/06/15 07:30:46;;;;;;;;;;;18.20;99.90;;;;;;5080137;28;19931;-82
2022/06/15 07:33:12;;;;;;;;;;;18.20;99.90;;;;;;5078522;28;19913;-80
2022/06/15 07:35:38;;;;;;;;;;;18.30;99.90;;;;;;5091732;28;19913;-83
2022/06/15 07:38:05;;;;;;;;;;;18.40;99.90;;;;;;5095819;28;20353;-78
2022/06/15 07:40:31;;;;;;;;;;;18.50;99.90;;;;;;5094602;28;20357;-77
2022/06/15 07:42:57;;;;;;;;;;;18.50;99.90;;;;;;5093985;28;20423;-80
2022/06/15 07:45:23;;;;;;;;;;;18.40;99.90;;;;;;5094887;28;19908;-77
2022/06/15 07:50:34;;;;;;;;;;;18.40;99.90;;;;;;5094360;28;19954;-80
2022/06/15 07:53:00;;;;;;;;;;;18.40;99.90;;;;;;5094422;28;20502;-79
2022/06/15 07:55:28;;;;;;;;;;;18.40;99.90;;;;;;5094549;28;19912;-79
2022/06/15 07:57:54;;;;;;;;;;;18.60;99.90;;;;;;5093673;28;20425;-84
2022/06/15 08:00:21;;;;;;;;;;;18.60;99.90;;;;;;5094771;28;19987;-85
2022/06/15 08:02:46;;;;;;;;;;;18.60;99.90;;;;;;5093957;28;19915;-79
2022/06/15 08:05:12;;;;;;;;;;;18.50;99.90;;;;;;5094564;28;19908;-83
2022/06/15 08:07:38;;;;;;;;;;;18.30;99.90;;;;;;5093379;28;19908;-81
2022/06/15 08:10:04;;;;;;;;;;;18.40;99.90;;;;;;5094368;28;19915;-80
2022/06/15 08:12:31;;;;;;;;;;;18.40;99.90;;;;;;5093891;28;19919;-78
2022/06/15 08:14:58;;;;;;;;;;;18.60;99.90;;;;;;5092577;28;19918;-80
2022/06/15 08:17:34;;;;;;;;;;;18.60;99.90;;;;;;5093419;28;19912;-80
2022/06/15 08:20:05;;;;;;;;;;;18.60;99.90;;;;;;5094206;28;19908;-79
2022/06/15 08:22:31;;;;;;;;;;;18.70;99.90;;;;;;5093430;28;19919;-78
2022/06/15 08:24:57;;;;;;;;;;;18.60;99.90;;;;;;5093251;28;19912;-78
2022/06/15 08:27:23;;;;;;;;;;;18.60;99.90;;;;;;5092287;28;19961;-79
2022/06/15 08:29:49;;;;;;;;;;;18.70;99.90;;;;;;5106411;28;19953;-80
2022/06/15 08:32:16;;;;;;;;;;;18.70;99.90;;;;;;5075068;28;19920;-80
2022/06/15 08:34:42;;;;;;;;;;;18.80;99.90;;;;;;5093234;28;19916;-81
2022/06/15 08:37:09;;;;;;;;;;;18.60;99.90;;;;;;5093610;28;20327;-80
2022/06/15 08:39:35;;;;;;;;;;;18.70;99.90;;;;;;5092636;28;19912;-78
2022/06/15 08:42:04;;;;;;;;;;;18.60;99.90;;;;;;5093681;28;20250;-80
2022/06/15 08:44:34;;;;;;;;;;;18.50;99.90;;;;;;5095378;28;19979;-79
2022/06/15 08:47:03;;;;;;;;;;;18.60;99.90;;;;;;5116549;28;19912;-82
2022/06/15 08:49:28;;;;;;;;;;;18.70;99.90;;;;;;5104066;28;19960;-81
2022/06/15 08:52:04;;;;;;;;;;;18.70;99.90;;;;;;5093315;28;20551;-82
2022/06/15 08:54:32;;;;;;;;;;;18.60;99.90;;;;;;5093859;28;19918;-81
2022/06/15 08:57:05;;;;;;;;;;;18.70;99.90;;;;;;5091687;28;19919;-81
2022/06/15 08:59:33;;;;;;;;;;;18.60;99.90;;;;;;5093283;28;19908;-81
2022/06/15 09:02:06;;;;;;;;;;;18.70;99.90;;;;;;5093139;28;19912;-79
2022/06/15 09:04:31;;;;;;;;;;;18.80;99.90;;;;;;5093368;28;19997;-79
2022/06/15 09:06:57;;;;;;;;;;;18.90;99.90;;;;;;5092818;28;19956;-79
2022/06/15 09:09:45;;;;;;;;;;;19.00;99.90;;;;;;5092584;28;19986;-79
2022/06/15 09:15:24;;;;;;;;;;;19.00;99.90;;;;;;5077088;28;19941;-79
2022/06/15 09:17:50;;;;;;;;;;;19.00;99.90;;;;;;5092526;28;19943;-77
2022/06/15 09:20:20;;;;;;;;;;;19.10;99.90;;;;;;5093024;28;19908;-77
2022/06/15 09:22:56;;;;;;;;;;;19.10;99.90;;;;;;5092514;28;19915;-78
2022/06/15 09:25:22;;;;;;;;;;;19.10;99.90;;;;;;5091159;28;19908;-79
2022/06/15 09:27:53;;;;;;;;;;;19.10;99.90;;;;;;5092514;28;20256;-78
2022/06/15 09:30:21;;;;;;;;;;;19.20;99.90;;;;;;5092237;28;20418;-79
2022/06/15 09:32:55;;;;;;;;;;;19.30;99.90;;;;;;5092408;28;19912;-78
2022/06/15 09:35:28;;;;;;;;;;;19.30;99.90;;;;;;5092950;28;19918;-77
2022/06/15 09:37:55;;;;;;;;;;;19.30;99.90;;;;;;5091951;28;19915;-76
2022/06/15 09:40:23;;;;;;;;;;;19.40;99.90;;;;;;5092941;28;20253;-79
2022/06/15 09:42:54;;;;;;;;;;;19.20;99.90;;;;;;5091875;28;19916;-79
2022/06/15 09:45:31;;;;;;;;;;;19.20;99.90;;;;;;5092467;28;19908;-79
2022/06/15 09:48:00;;;;;;;;;;;19.30;99.90;;;;;;5091989;28;19904;-79
2022/06/15 09:50:46;;;;;;;;;;;19.60;99.90;;;;;;5092068;28;20011;-78
2022/06/15 09:53:11;;;;;;;;;;;19.70;99.90;;;;;;5092133;28;19981;-79
2022/06/15 09:55:39;;;;;;;;;;;20.10;99.90;;;;;;5091904;28;19916;-77
2022/06/15 09:58:05;;;;;;;;;;;20.40;99.90;;;;;;5091604;28;19908;-80
2022/06/15 10:00:31;;;;;;;;;;;20.50;99.90;;;;;;5091761;28;19947;-80
2022/06/15 10:03:02;;;;;;;;;;;20.60;99.90;;;;;;5091433;28;19955;-80
2022/06/15 10:05:37;;;;;;;;;;;20.80;99.90;;;;;;5092129;28;19912;-80
2022/06/15 10:08:04;;;;;;;;;;;20.80;99.90;;;;;;5091656;28;20010;-79
2022/06/15 10:10:32;;;;;;;;;;;20.30;99.90;;;;;;5090593;28;19916;-80
2022/06/15 10:13:02;;;;;;;;;;;20.30;99.90;;;;;;5089479;28;20018;-80
2022/06/15 10:15:50;;;;;;;;;;;20.40;99.90;;;;;;5092232;28;19913;-80
2022/06/15 10:18:31;;;;;;;;;;;20.40;99.90;;;;;;5091871;28;19912;-79
2022/06/15 10:20:56;;;;;;;;;;;20.30;99.90;;;;;;5090178;28;20467;-80
2022/06/15 10:23:23;;;;;;;;;;;20.30;99.90;;;;;;5092010;28;19912;-80
2022/06/15 10:25:51;;;;;;;;;;;20.40;99.90;;;;;;5091200;28;19991;-79
2022/06/15 10:28:21;;;;;;;;;;;20.30;99.90;;;;;;5091238;28;19912;-79
2022/06/15 10:30:58;;;;;;;;;;;20.40;99.90;;;;;;5090823;28;19924;-80
2022/06/15 10:33:24;;;;;;;;;;;20.50;99.90;;;;;;5091932;28;20241;-80
2022/06/15 10:35:57;;;;;;;;;;;20.60;99.90;;;;;;5091010;28;20014;-80
2022/06/15 10:38:22;;;;;;;;;;;20.60;99.90;;;;;;5092215;28;19908;-80
2022/06/15 10:41:45;;;;;;;;;;;20.60;99.90;;;;;;5091196;28;19953;-79
2022/06/15 10:43:45;;;;;;;;;;;20.70;99.90;;;;;;5091299;28;20262;-79
2022/06/15 10:46:11;;;;;;;;;;;20.90;99.90;;;;;;5091398;28;19916;-79
2022/06/15 10:48:41;;;;;;;;;;;21.10;99.90;;;;;;5090780;28;19908;-79
2022/06/15 10:51:08;;;;;;;;;;;21.20;99.90;;;;;;5091440;28;19974;-80
2022/06/15 10:53:43;;;;;;;;;;;21.30;99.90;;;;;;5092182;28;19912;-80
2022/06/15 11:02:08;;;;;;;;;;;21.40;99.90;;;;;;5091615;28;19957;-78
2022/06/15 11:04:46;;;;;;;;;;;21.30;99.90;;;;;;5091667;28;19908;-78
2022/06/15 11:07:21;;;;;;;;;;;21.50;99.90;;;;;;5091875;28;20353;-79
2022/06/15 11:09:55;;;;;;;;;;;21.60;99.90;;;;;;5094173;28;19908;-78
2022/06/15 11:12:39;;;;;;;;;;;21.70;99.90;;;;;;5095147;28;19912;-78
2022/06/15 11:15:14;;;;;;;;;;;21.50;99.90;;;;;;5095712;28;20369;-78
2022/06/15 11:18:01;;;;;;;;;;;21.30;99.90;;;;;;5095960;28;20047;-76
2022/06/15 11:20:38;;;;;;;;;;;21.20;99.90;;;;;;5095870;28;19912;-79
2022/06/15 11:23:16;;;;;;;;;;;21.10;99.90;;;;;;5095103;28;19912;-79
2022/06/15 11:26:00;;;;;;;;;;;20.90;99.90;;;;;;5094867;28;19908;-77
2022/06/15 11:28:29;;;;;;;;;;;20.70;99.90;;;;;;5095697;28;19908;-78
2022/06/15 11:30:58;;;;;;;;;;;20.50;99.90;;;;;;5093613;28;19967;-78
2022/06/15 11:33:27;;;;;;;;;;;20.30;99.90;;;;;;5094999;28;19917;-78
2022/06/15 11:36:12;;;;;;;;;;;20.40;99.90;;;;;;5094356;28;20015;-79
2022/06/15 11:38:42;;;;;;;;;;;20.30;99.90;;;;;;5094311;28;19908;-78
2022/06/15 11:41:21;;;;;;;;;;;20.20;99.90;;;;;;5094367;28;19919;-78
2022/06/15 11:43:49;;;;;;;;;;;20.10;99.90;;;;;;5094330;28;19943;-79
2022/06/15 11:46:15;;;;;;;;;;;20.00;99.90;;;;;;5093542;28;20269;-79
2022/06/15 11:49:00;;;;;;;;;;;20.20;99.90;;;;;;5094550;28;19934;-79
2022/06/15 11:51:32;;;;;;;;;;;20.10;99.90;;;;;;5073037;28;19951;-78
2022/06/15 11:54:06;;;;;;;;;;;20.10;99.90;;;;;;5093916;28;20357;-77
2022/06/15 11:56:36;;;;;;;;;;;20.30;99.90;;;;;;5094692;28;19916;-79
2022/06/15 11:59:10;;;;;;;;;;;20.20;99.90;;;;;;5093052;28;19912;-78
2022/06/15 12:01:44;;;;;;;;;;;20.20;99.90;;;;;;5093233;28;20365;-79
2022/06/15 12:04:09;;;;;;;;;;;20.20;99.90;;;;;;5094512;28;20341;-79
2022/06/15 12:06:45;;;;;;;;;;;20.30;99.90;;;;;;5093964;28;19954;-79
2022/06/15 12:09:17;;;;;;;;;;;20.50;99.90;;;;;;5094448;28;19909;-79
2022/06/15 12:14:30;;;;;;;;;;;21.00;99.90;;;;;;5114741;28;19919;-79
2022/06/15 12:17:14;;;;;;;;;;;21.00;99.90;;;;;;5099213;28;19912;-79
2022/06/15 12:19:40;;;;;;;;;;;20.80;99.90;;;;;;5093401;28;19908;-78
2022/06/15 12:22:15;;;;;;;;;;;20.70;99.90;;;;;;5093381;28;20015;-78
2022/06/15 12:24:48;;;;;;;;;;;20.60;99.90;;;;;;5093793;28;20299;-80
2022/06/15 12:27:21;;;;;;;;;;;20.40;99.90;;;;;;5092857;28;19912;-78
2022/06/15 12:29:51;;;;;;;;;;;20.30;99.90;;;;;;5103271;28;20284;-77
2022/06/15 12:35:02;;;;;;;;;;;20.20;99.90;;;;;;5094685;28;19920;-80
2022/06/15 12:37:36;;;;;;;;;;;20.00;99.90;;;;;;5093956;28;20010;-80
2022/06/15 12:40:10;;;;;;;;;;;20.00;99.90;;;;;;5106229;28;20455;-80
2022/06/15 12:42:36;;;;;;;;;;;20.10;99.90;;;;;;5101893;28;19908;-80
2022/06/15 12:45:06;;;;;;;;;;;20.10;99.90;;;;;;5093270;28;19931;-80
2022/06/15 12:47:32;;;;;;;;;;;20.20;99.90;;;;;;5093768;28;20025;-79
2022/06/15 12:49:57;;;;;;;;;;;20.20;99.90;;;;;;5093334;28;20019;-80
2022/06/15 12:52:27;;;;;;;;;;;20.30;99.90;;;;;;5093393;28;20021;-81
2022/06/15 12:55:11;;;;;;;;;;;20.30;99.90;;;;;;5091784;28;19916;-78
2022/06/15 12:57:36;;;;;;;;;;;20.30;99.90;;;;;;5092300;28;19908;-80
2022/06/15 13:00:20;;;;;;;;;;;20.40;99.90;;;;;;5093027;28;19908;-81
2022/06/15 13:02:58;;;;;;;;;;;20.20;99.90;;;;;;5092821;28;19908;-77
2022/06/15 13:05:25;;;;;;;;;;;20.40;99.90;;;;;;5093442;28;19912;-80
2022/06/15 13:08:09;;;;;;;;;;;20.50;99.90;;;;;;5092724;28;19912;-81
2022/06/15 13:10:35;;;;;;;;;;;20.60;99.90;;;;;;5093201;28;19908;-81
2022/06/15 13:13:03;;;;;;;;;;;20.80;99.90;;;;;;5092388;28;20375;-80
2022/06/15 13:15:55;;;;;;;;;;;20.80;99.90;;;;;;5093290;28;19912;-80
2022/06/15 13:18:56;;;;;;;;;;;20.70;99.90;;;;;;5091000;28;19908;-80
2022/06/15 13:21:23;;;;;;;;;;;20.60;99.90;;;;;;5050364;28;19912;-81
2022/06/15 13:24:00;;;;;;;;;;;20.60;99.90;;;;;;5083898;28;20261;-82
2022/06/15 13:26:39;;;;;;;;;;;20.50;99.90;;;;;;5092972;28;20281;-80
2022/06/15 13:29:10;;;;;;;;;;;20.30;99.90;;;;;;5091351;28;19989;-81
2022/06/15 13:31:45;;;;;;;;;;;20.30;99.90;;;;;;5091936;28;20026;-80
2022/06/15 13:34:12;;;;;;;;;;;20.50;99.90;;;;;;5092450;28;19912;-80
2022/06/15 13:36:38;;;;;;;;;;;20.40;99.90;;;;;;5093064;28;19912;-81
2022/06/15 13:39:22;;;;;;;;;;;20.30;99.90;;;;;;5092354;28;20004;-81
2022/06/15 13:42:07;;;;;;;;;;;20.20;99.90;;;;;;5092568;28;19912;-79
2022/06/15 13:44:47;;;;;;;;;;;20.20;99.90;;;;;;5093303;28;19912;-80
2022/06/15 13:47:13;;;;;;;;;;;20.20;99.90;;;;;;5093025;28;19908;-81
2022/06/15 13:49:40;;;;;;;;;;;20.30;99.90;;;;;;5091565;28;19975;-82
2022/06/15 13:52:08;;;;;;;;;;;20.20;99.90;;;;;;5090921;28;19961;-81
2022/06/15 13:54:49;;;;;;;;;;;20.30;99.90;;;;;;5092050;28;19959;-80
2022/06/15 13:57:20;;;;;;;;;;;20.20;99.90;;;;;;5092621;28;19908;-81
2022/06/15 13:59:57;;;;;;;;;;;20.30;99.90;;;;;;5092569;28;19908;-80
2022/06/15 14:02:28;;;;;;;;;;;20.10;99.90;;;;;;5092743;28;19908;-82
2022/06/15 14:05:07;;;;;;;;;;;20.00;99.90;;;;;;5091972;28;19915;-80
2022/06/15 14:07:50;;;;;;;;;;;19.90;99.90;;;;;;5092719;28;19908;-80
2022/06/15 14:10:34;;;;;;;;;;;19.90;99.90;;;;;;5091875;28;19927;-81
2022/06/15 14:13:03;;;;;;;;;;;19.90;99.90;;;;;;5091292;28;19912;-77
2022/06/15 14:15:32;;;;;;;;;;;20.00;99.90;;;;;;5092250;28;19994;-81
2022/06/15 14:18:22;;;;;;;;;;;20.10;99.90;;;;;;5091748;28;19929;-79
2022/06/15 14:20:48;;;;;;;;;;;20.30;99.90;;;;;;5092303;28;19909;-76
2022/06/15 14:23:24;;;;;;;;;;;20.40;99.90;;;;;;5091895;28;20254;-79
2022/06/15 14:25:50;;;;;;;;;;;20.50;99.90;;;;;;5092094;28;19994;-76
2022/06/15 14:28:17;;;;;;;;;;;20.60;99.90;;;;;;5092502;28;19915;-79
2022/06/15 14:30:45;;;;;;;;;;;20.80;99.90;;;;;;5090372;28;20379;-80
2022/06/15 14:33:29;;;;;;;;;;;21.10;99.90;;;;;;5101416;28;20426;-79
2022/06/15 14:36:03;;;;;;;;;;;21.00;99.90;;;;;;5091743;28;20008;-79
2022/06/15 14:38:29;;;;;;;;;;;20.90;99.90;;;;;;5092082;28;19908;-80
2022/06/15 14:41:08;;;;;;;;;;;20.70;99.90;;;;;;5096001;28;19908;-79
2022/06/15 14:43:34;;;;;;;;;;;20.60;99.90;;;;;;5094994;28;19913;-79
2022/06/15 14:46:00;;;;;;;;;;;20.60;99.90;;;;;;5094096;28;19915;-78
2022/06/15 14:48:28;;;;;;;;;;;20.80;99.90;;;;;;5096150;28;19908;-80